createdAt,value
2019-05-20T00:01:03.198Z,25.40
2019-05-20T00:03:31.582Z,26.53
2019-05-20T00:06:00.046Z,26.83
2019-05-20T00:08:28.452Z,28.60
2019-05-20T00:10:56.859Z,28.50
2019-05-20T00:13:25.339Z,27.27
2019-05-20T00:15:53.732Z,28.40
2019-05-20T00:18:22.168Z,29.60
2019-05-20T00:20:50.834Z,26.90
2019-05-20T00:23:19.220Z,25.83
2019-05-20T00:25:47.651Z,32.17
2019-05-20T00:28:16.067Z,23.77
2019-05-20T00:30:44.503Z,23.90
2019-05-20T00:33:12.907Z,23.13
2019-05-20T00:35:41.336Z,27.97
2019-05-20T00:38:09.736Z,24.47
2019-05-20T00:40:38.153Z,22.63
2019-05-20T00:43:06.667Z,20.87
2019-05-20T00:45:35.083Z,23.50
2019-05-20T00:48:03.508Z,25.60
2019-05-20T00:50:32.771Z,25.30
2019-05-20T00:53:01.195Z,27.43
2019-05-20T00:55:30.222Z,28.53
2019-05-20T00:57:58.631Z,27.07
2019-05-20T01:00:27.025Z,27.70
2019-05-20T01:02:57.318Z,31.33
2019-05-20T01:05:25.672Z,33.27
2019-05-20T01:07:54.076Z,35.37
2019-05-20T01:10:22.531Z,33.63
2019-05-20T01:12:50.922Z,31.43
2019-05-20T01:15:19.352Z,31.20
2019-05-20T01:17:47.768Z,35.33
2019-05-20T01:20:16.322Z,34.07
2019-05-20T01:22:44.667Z,30.40
2019-05-20T01:25:13.145Z,28.57
2019-05-20T01:27:41.580Z,31.10
2019-05-20T01:30:10.065Z,29.73
2019-05-20T01:32:38.457Z,26.93
2019-05-20T01:35:07.301Z,29.83
2019-05-20T01:37:35.663Z,29.17
2019-05-20T01:40:04.341Z,25.87
2019-05-20T01:42:32.702Z,26.13
2019-05-20T01:45:01.116Z,27.67
2019-05-20T01:47:29.510Z,31.33
2019-05-20T01:49:57.916Z,30.97
2019-05-20T01:52:26.323Z,25.90
2019-05-20T01:54:54.817Z,26.67
2019-05-20T01:57:23.230Z,26.13
2019-05-20T01:59:51.644Z,25.87
2019-05-20T02:02:20.052Z,24.40
2019-05-20T02:04:48.432Z,27.27
2019-05-20T02:07:16.920Z,25.67
2019-05-20T02:09:45.299Z,28.33
2019-05-20T02:12:13.727Z,30.20
2019-05-20T02:14:43.755Z,27.43
2019-05-20T02:17:12.174Z,28.20
2019-05-20T02:19:40.612Z,25.83
2019-05-20T02:22:09.044Z,27.73
2019-05-20T02:24:37.433Z,30.23
2019-05-20T02:27:05.837Z,28.00
2019-05-20T02:29:34.253Z,27.70
2019-05-20T02:32:02.671Z,29.07
2019-05-20T02:34:31.073Z,31.23
2019-05-20T02:36:59.497Z,32.73
2019-05-20T02:39:27.909Z,27.33
2019-05-20T02:41:56.320Z,28.80
2019-05-20T02:44:24.765Z,25.70
2019-05-20T02:46:53.133Z,31.00
2019-05-20T02:49:21.551Z,24.50
2019-05-20T02:51:49.949Z,30.20
2019-05-20T02:54:18.355Z,26.17
2019-05-20T02:56:46.760Z,30.27
2019-05-20T02:59:15.171Z,27.67
2019-05-20T03:01:43.632Z,25.60
2019-05-20T03:04:13.139Z,28.40
2019-05-20T03:06:41.660Z,27.77
2019-05-20T03:09:12.355Z,27.60
2019-05-20T03:11:40.322Z,26.43
2019-05-20T03:14:08.733Z,27.10
2019-05-20T03:16:37.146Z,27.70
2019-05-20T03:19:05.564Z,28.40
2019-05-20T03:21:33.952Z,29.40
2019-05-20T03:24:02.379Z,28.03
2019-05-20T03:26:36.605Z,28.47
2019-05-20T03:29:04.977Z,23.27
2019-05-20T03:31:33.352Z,22.77
2019-05-20T03:34:01.757Z,24.87
2019-05-20T03:36:30.243Z,24.70
2019-05-20T03:38:58.652Z,23.93
2019-05-20T03:41:27.076Z,21.03
2019-05-20T03:43:55.471Z,20.03
2019-05-20T03:46:23.874Z,19.73
2019-05-20T03:48:52.269Z,20.17
2019-05-20T03:51:20.672Z,20.17
2019-05-20T03:53:49.078Z,18.20
2019-05-20T03:56:17.491Z,19.80
2019-05-20T03:58:45.917Z,20.27
2019-05-20T04:01:14.336Z,19.90
2019-05-20T04:03:42.739Z,23.23
2019-05-20T04:06:11.124Z,20.83
2019-05-20T04:08:42.578Z,19.00
2019-05-20T04:11:10.990Z,22.47
2019-05-20T04:13:39.497Z,19.90
2019-05-20T04:16:07.920Z,20.60
2019-05-20T04:18:36.307Z,25.67
2019-05-20T04:21:04.722Z,29.83
2019-05-20T04:23:33.113Z,28.43
2019-05-20T04:26:01.516Z,28.37
2019-05-20T04:28:29.900Z,31.10
2019-05-20T04:30:58.335Z,30.20
2019-05-20T04:33:26.736Z,29.07
2019-05-20T04:35:55.176Z,31.83
2019-05-20T04:38:23.607Z,29.80
2019-05-20T04:40:52.007Z,32.40
2019-05-20T04:43:20.415Z,28.77
2019-05-20T04:45:48.824Z,29.27
2019-05-20T04:48:17.220Z,33.90
2019-05-20T04:50:45.650Z,36.03
2019-05-20T04:53:14.053Z,41.20
2019-05-20T04:55:42.477Z,34.97
2019-05-20T04:58:10.865Z,42.57
2019-05-20T05:00:53.584Z,44.57
2019-05-20T05:03:22.343Z,42.57
2019-05-20T05:05:50.819Z,43.73
2019-05-20T05:08:19.967Z,42.33
2019-05-20T05:10:48.516Z,40.53
2019-05-20T05:13:17.061Z,40.97
2019-05-20T05:15:45.651Z,37.73
2019-05-20T05:18:14.030Z,35.40
2019-05-20T05:20:42.448Z,42.90
2019-05-20T05:23:10.822Z,34.30
2019-05-20T05:25:39.251Z,32.97
2019-05-20T05:28:07.648Z,31.33
2019-05-20T05:30:36.033Z,31.87
2019-05-20T05:33:04.673Z,25.57
2019-05-20T05:35:33.095Z,24.73
2019-05-20T05:38:01.937Z,28.93
2019-05-20T05:40:31.476Z,25.30
2019-05-20T05:42:59.919Z,24.27
2019-05-20T05:45:33.242Z,24.47
2019-05-20T05:48:01.719Z,22.43
2019-05-20T05:50:30.172Z,22.63
2019-05-20T05:52:58.554Z,19.40
2019-05-20T05:55:26.966Z,23.23
2019-05-20T05:57:55.351Z,24.93
2019-05-20T06:00:23.833Z,21.67
2019-05-20T06:02:52.360Z,23.17
2019-05-20T06:05:20.802Z,22.07
2019-05-20T06:07:49.283Z,19.27
2019-05-20T06:10:17.679Z,21.70
2019-05-20T06:12:46.066Z,22.67
2019-05-20T06:15:14.518Z,20.77
2019-05-20T06:17:42.887Z,19.03
2019-05-20T06:20:11.412Z,17.00
2019-05-20T06:22:39.825Z,17.83
2019-05-20T06:25:08.438Z,16.47
2019-05-20T06:27:36.848Z,15.13
2019-05-20T06:30:10.303Z,13.50
2019-05-20T06:32:38.737Z,16.53
2019-05-20T06:35:09.543Z,16.87
2019-05-20T06:37:39.796Z,17.53
2019-05-20T06:40:08.592Z,16.83
2019-05-20T06:42:36.994Z,16.80
2019-05-20T06:45:06.786Z,15.93
2019-05-20T06:47:35.616Z,16.33
2019-05-20T06:50:08.197Z,15.93
2019-05-20T06:52:36.623Z,17.17
2019-05-20T06:55:08.395Z,15.43
2019-05-20T06:57:36.796Z,14.57
2019-05-20T07:00:07.036Z,17.03
2019-05-20T07:02:35.490Z,17.23
2019-05-20T07:05:06.214Z,14.90
2019-05-20T07:07:34.638Z,14.70
2019-05-20T07:10:03.186Z,13.57
2019-05-20T07:12:40.524Z,13.60
2019-05-20T07:15:01.684Z,15.17
2019-05-20T07:17:30.073Z,13.13
2019-05-20T07:19:58.475Z,13.50
2019-05-20T07:22:26.937Z,15.57
2019-05-20T07:24:55.374Z,11.93
2019-05-20T07:27:23.798Z,12.57
2019-05-20T07:29:52.220Z,13.50
2019-05-20T07:32:20.621Z,14.80
2019-05-20T07:34:49.072Z,13.70
2019-05-20T07:37:17.453Z,15.03
2019-05-20T07:39:45.936Z,14.47
2019-05-20T07:42:14.355Z,14.10
2019-05-20T07:44:42.742Z,14.17
2019-05-20T07:47:11.399Z,12.87
2019-05-20T07:49:39.908Z,16.13
2019-05-20T07:52:08.425Z,14.53
2019-05-20T07:54:36.880Z,15.83
2019-05-20T07:57:05.790Z,13.47
2019-05-20T07:59:34.212Z,12.37
2019-05-20T08:02:02.606Z,13.27
2019-05-20T08:04:31.030Z,13.33
2019-05-20T08:06:59.379Z,13.70
2019-05-20T08:09:27.796Z,12.50
2019-05-20T08:11:56.223Z,14.17
2019-05-20T08:14:24.656Z,12.17
2019-05-20T08:16:53.096Z,14.43
2019-05-20T08:19:21.517Z,12.30
2019-05-20T08:21:50.291Z,12.90
2019-05-20T08:24:18.696Z,18.20
2019-05-20T08:26:47.137Z,14.03
2019-05-20T08:29:15.538Z,12.83
2019-05-20T08:31:44.035Z,12.83
2019-05-20T08:34:12.515Z,15.60
2019-05-20T08:36:41.968Z,16.10
2019-05-20T08:39:10.376Z,13.67
2019-05-20T08:41:38.862Z,15.70
2019-05-20T08:44:07.412Z,14.87
2019-05-20T08:46:35.830Z,15.40
2019-05-20T08:49:04.244Z,11.30
2019-05-20T08:51:32.627Z,11.70
2019-05-20T08:54:01.263Z,14.87
2019-05-20T08:56:29.684Z,14.30
2019-05-20T08:58:58.096Z,13.07
2019-05-20T09:01:26.503Z,13.30
2019-05-20T09:03:54.890Z,14.60
2019-05-20T09:06:23.290Z,12.30
2019-05-20T09:08:51.659Z,12.93
2019-05-20T09:11:20.079Z,12.50
2019-05-20T09:13:48.487Z,13.70
2019-05-20T09:16:16.870Z,11.30
2019-05-20T09:18:45.252Z,9.83
2019-05-20T09:21:15.530Z,9.17
2019-05-20T09:23:44.151Z,8.37
2019-05-20T09:26:12.522Z,11.67
2019-05-20T09:28:40.929Z,9.60
2019-05-20T09:31:09.308Z,11.53
2019-05-20T09:33:38.136Z,12.17
2019-05-20T09:36:06.486Z,12.10
2019-05-20T09:38:36.953Z,10.70
2019-05-20T09:41:04.947Z,9.27
2019-05-20T09:43:33.325Z,9.07
2019-05-20T09:46:07.820Z,11.03
2019-05-20T09:48:31.767Z,13.03
2019-05-20T09:51:00.190Z,11.07
2019-05-20T09:53:28.604Z,9.27
2019-05-20T09:55:56.976Z,9.63
2019-05-20T09:58:25.395Z,10.53
2019-05-20T10:00:53.814Z,13.27
2019-05-20T10:03:22.225Z,11.50
2019-05-20T10:05:50.627Z,12.03
2019-05-20T10:08:34.455Z,11.70
2019-05-20T10:10:49.090Z,12.70
2019-05-20T10:13:17.516Z,12.10
2019-05-20T10:15:45.917Z,15.30
2019-05-20T10:18:14.294Z,14.90
2019-05-20T10:20:42.704Z,12.43
2019-05-20T10:23:15.063Z,16.10
2019-05-20T10:25:41.185Z,14.00
2019-05-20T10:28:09.576Z,16.97
2019-05-20T10:30:37.979Z,17.53
2019-05-20T10:33:09.501Z,17.83
2019-05-20T10:35:36.452Z,16.77
2019-05-20T10:38:04.863Z,18.43
2019-05-20T10:40:33.326Z,18.40
2019-05-20T10:43:01.760Z,18.10
2019-05-20T10:45:30.139Z,21.13
2019-05-20T10:47:58.567Z,19.17
2019-05-20T10:50:27.002Z,15.93
2019-05-20T10:52:55.425Z,18.63
2019-05-20T10:55:26.552Z,22.20
2019-05-20T10:57:54.967Z,20.30
2019-05-20T11:00:23.421Z,23.20
2019-05-20T11:02:51.800Z,22.07
2019-05-20T11:05:20.247Z,23.00
2019-05-20T11:07:48.658Z,18.47
2019-05-20T11:10:17.068Z,15.97
2019-05-20T11:12:45.449Z,16.53
2019-05-20T11:15:13.850Z,16.80
2019-05-20T11:17:42.267Z,19.03
2019-05-20T11:20:10.631Z,17.23
2019-05-20T11:22:39.050Z,16.33
2019-05-20T11:25:07.451Z,17.90
2019-05-20T11:27:35.865Z,19.17
2019-05-20T11:30:07.463Z,15.80
2019-05-20T11:32:35.860Z,21.37
2019-05-20T11:35:06.229Z,18.47
2019-05-20T11:37:34.642Z,16.73
2019-05-20T11:40:05.634Z,20.43
2019-05-20T11:42:34.274Z,21.97
2019-05-20T11:45:02.697Z,22.27
2019-05-20T11:47:31.112Z,19.70
2019-05-20T11:49:59.490Z,25.07
2019-05-20T11:52:27.902Z,24.77
2019-05-20T11:54:56.305Z,27.77
2019-05-20T11:57:24.737Z,26.30
2019-05-20T11:59:53.096Z,26.80
2019-05-20T12:02:21.598Z,29.23
2019-05-20T12:04:50.041Z,22.93
2019-05-20T12:07:18.470Z,25.43
2019-05-20T12:09:50.030Z,27.47
2019-05-20T12:12:16.915Z,26.33
2019-05-20T12:14:45.323Z,22.87
2019-05-20T12:17:13.719Z,26.90
2019-05-20T12:19:42.146Z,25.27
2019-05-20T12:22:10.556Z,22.83
2019-05-20T12:24:38.984Z,26.50
2019-05-20T12:27:07.414Z,27.47
2019-05-20T12:29:35.827Z,27.20
2019-05-20T12:32:04.285Z,35.20
2019-05-20T12:34:32.690Z,28.40
2019-05-20T12:37:01.089Z,25.47
2019-05-20T12:39:29.578Z,28.10
2019-05-20T12:41:57.937Z,21.03
2019-05-20T12:44:26.377Z,28.13
2019-05-20T12:46:55.757Z,24.13
2019-05-20T12:49:24.227Z,24.80
2019-05-20T12:51:52.829Z,26.10
2019-05-20T12:54:21.303Z,24.17
2019-05-20T12:56:49.728Z,29.47
2019-05-20T12:59:18.122Z,31.37
2019-05-20T13:01:46.518Z,29.57
2019-05-20T13:04:14.919Z,29.10
2019-05-20T13:06:43.313Z,29.47
2019-05-20T13:09:11.715Z,25.43
2019-05-20T13:11:40.108Z,27.73
2019-05-20T13:14:08.504Z,31.30
2019-05-20T13:16:36.949Z,30.00
2019-05-20T13:19:05.356Z,28.70
2019-05-20T13:21:33.777Z,25.47
2019-05-20T13:24:02.204Z,24.43
2019-05-20T13:26:30.597Z,28.83
2019-05-20T13:28:59.801Z,30.83
2019-05-20T13:31:28.772Z,33.80
2019-05-20T13:33:57.382Z,36.90
2019-05-20T13:36:25.863Z,34.60
2019-05-20T13:38:54.249Z,33.77
2019-05-20T13:41:22.660Z,35.10
2019-05-20T13:43:51.086Z,33.63
2019-05-20T13:46:19.491Z,32.73
2019-05-20T13:48:47.900Z,36.50
2019-05-20T13:51:16.291Z,39.80
2019-05-20T13:53:44.702Z,37.13
2019-05-20T13:56:13.081Z,38.03
2019-05-20T13:58:41.560Z,38.50
2019-05-20T14:01:09.942Z,39.20
2019-05-20T14:03:38.392Z,46.60
2019-05-20T14:06:06.797Z,52.77
2019-05-20T14:08:35.208Z,50.77
2019-05-20T14:11:05.027Z,49.97
2019-05-20T14:13:33.716Z,44.23
2019-05-20T14:16:02.237Z,47.30
2019-05-20T14:18:30.644Z,47.07
2019-05-20T14:20:59.050Z,46.27
2019-05-20T14:23:27.469Z,44.77
2019-05-20T14:25:55.890Z,43.80
2019-05-20T14:28:24.332Z,53.50
2019-05-20T14:30:52.799Z,45.83
2019-05-20T14:33:21.220Z,40.47
2019-05-20T14:35:49.601Z,48.40
2019-05-20T14:38:18.069Z,46.30
2019-05-20T14:40:46.523Z,46.53
2019-05-20T14:43:14.871Z,50.10
2019-05-20T14:45:43.355Z,45.67
2019-05-20T14:48:11.828Z,41.70
2019-05-20T14:50:40.232Z,37.60
2019-05-20T14:53:08.704Z,35.10
2019-05-20T14:55:42.208Z,39.00
2019-05-20T14:58:07.256Z,35.80
2019-05-20T15:00:35.655Z,35.37
2019-05-20T15:03:04.141Z,32.63
2019-05-20T15:05:32.648Z,27.17
2019-05-20T15:08:01.154Z,25.40
2019-05-20T15:10:29.516Z,24.43
2019-05-20T15:12:57.927Z,22.30
2019-05-20T15:15:26.330Z,18.33
2019-05-20T15:17:54.724Z,21.13
2019-05-20T15:20:23.124Z,18.23
2019-05-20T15:22:51.526Z,15.40
2019-05-20T15:25:19.963Z,17.53
2019-05-20T15:27:49.900Z,19.87
2019-05-20T15:30:18.364Z,20.53
2019-05-20T15:32:46.840Z,16.73
2019-05-20T15:35:15.249Z,17.73
2019-05-20T15:37:43.740Z,16.43
2019-05-20T15:40:12.171Z,19.13
2019-05-20T15:42:40.564Z,17.33
2019-05-20T15:45:09.132Z,16.30
2019-05-20T15:47:38.657Z,18.17
2019-05-20T15:50:10.019Z,16.40
2019-05-20T15:52:37.271Z,14.83
2019-05-20T15:55:05.674Z,16.00
2019-05-20T15:57:34.098Z,19.33
2019-05-20T16:00:02.944Z,23.37
2019-05-20T16:02:31.358Z,23.03
2019-05-20T16:04:59.749Z,19.60
2019-05-20T16:07:28.148Z,18.03
2019-05-20T16:09:56.569Z,18.10
2019-05-20T16:12:25.050Z,21.53
2019-05-20T16:14:53.508Z,23.30
2019-05-20T16:17:21.846Z,17.10
2019-05-20T16:19:50.292Z,19.63
2019-05-20T16:22:18.873Z,20.57
2019-05-20T16:24:47.296Z,20.17
2019-05-20T16:27:15.677Z,20.43
2019-05-20T16:29:44.084Z,23.13
2019-05-20T16:32:12.492Z,23.20
2019-05-20T16:34:40.905Z,26.83
2019-05-20T16:37:09.337Z,29.93
2019-05-20T16:39:37.740Z,28.03
2019-05-20T16:42:06.163Z,25.73
2019-05-20T16:44:34.578Z,23.50
2019-05-20T16:47:02.995Z,26.57
2019-05-20T16:49:31.414Z,21.30
2019-05-20T16:51:59.811Z,19.40
2019-05-20T16:54:28.205Z,25.87
2019-05-20T16:56:56.613Z,24.23
2019-05-20T16:59:24.996Z,21.83
2019-05-20T17:01:53.482Z,20.27
2019-05-20T17:04:21.885Z,19.63
2019-05-20T17:06:50.287Z,20.43
2019-05-20T17:09:18.759Z,24.20
2019-05-20T17:12:06.580Z,22.53
2019-05-20T17:14:34.985Z,21.13
2019-05-20T17:17:03.499Z,20.90
2019-05-20T17:19:31.916Z,19.13
2019-05-20T17:22:00.328Z,22.60
2019-05-20T17:24:28.725Z,23.47
2019-05-20T17:26:57.162Z,19.00
2019-05-20T17:29:25.689Z,16.23
2019-05-20T17:31:54.101Z,19.90
2019-05-20T17:34:22.547Z,16.47
2019-05-20T17:36:50.975Z,16.03
2019-05-20T17:39:19.399Z,12.90
2019-05-20T17:41:47.808Z,14.87
2019-05-20T17:44:16.256Z,15.00
2019-05-20T17:46:44.643Z,17.37
2019-05-20T17:49:13.145Z,17.47
2019-05-20T17:51:43.395Z,23.57
2019-05-20T17:54:11.786Z,19.93
2019-05-20T17:56:40.214Z,21.77
2019-05-20T17:59:08.622Z,18.63
2019-05-20T18:01:37.025Z,20.43
2019-05-20T18:04:05.527Z,20.03
2019-05-20T18:06:33.995Z,18.27
2019-05-20T18:09:02.461Z,18.07
2019-05-20T18:11:30.853Z,22.90
2019-05-20T18:13:59.261Z,29.63
2019-05-20T18:16:27.941Z,29.30
2019-05-20T18:18:56.436Z,29.30
2019-05-20T18:21:24.910Z,25.37
2019-05-20T18:23:53.339Z,22.07
2019-05-20T18:26:21.832Z,25.73
2019-05-20T18:28:50.265Z,23.27
2019-05-20T18:31:31.965Z,23.43
2019-05-20T18:33:48.859Z,21.60
2019-05-20T18:36:17.469Z,21.77
2019-05-20T18:38:49.171Z,22.70
2019-05-20T18:41:18.142Z,20.63
2019-05-20T18:43:46.551Z,30.83
2019-05-20T18:46:14.981Z,22.37
2019-05-20T18:48:43.419Z,22.63
2019-05-20T18:51:11.848Z,25.60
2019-05-20T18:53:40.252Z,25.77
2019-05-20T18:56:08.677Z,25.20
2019-05-20T18:58:37.082Z,38.23
2019-05-20T19:01:05.528Z,28.67
2019-05-20T19:03:34.394Z,32.70
2019-05-20T19:06:02.968Z,39.83
2019-05-20T19:08:31.414Z,34.03
2019-05-20T19:10:59.827Z,35.07
2019-05-20T19:13:28.325Z,37.77
2019-05-20T19:15:56.714Z,37.07
2019-05-20T19:18:25.137Z,32.70
2019-05-20T19:20:53.530Z,40.43
2019-05-20T19:23:21.952Z,46.77
2019-05-20T19:25:50.373Z,37.70
2019-05-20T19:28:18.812Z,37.60
2019-05-20T19:30:47.657Z,40.23
2019-05-20T19:33:16.420Z,36.23
2019-05-20T19:35:44.846Z,37.97
2019-05-20T19:38:13.234Z,35.00
2019-05-20T19:40:41.647Z,38.07
2019-05-20T19:43:10.175Z,29.53
2019-05-20T19:45:38.798Z,36.57
2019-05-20T19:48:07.221Z,39.57
2019-05-20T19:50:35.727Z,37.93
2019-05-20T19:53:04.211Z,35.93
2019-05-20T19:55:32.847Z,34.93
2019-05-20T19:58:01.488Z,37.87
2019-05-20T20:00:29.908Z,37.67
2019-05-20T20:02:58.333Z,41.13
2019-05-20T20:05:26.802Z,45.60
2019-05-20T20:07:55.204Z,41.27
2019-05-20T20:10:23.650Z,40.20
2019-05-20T20:12:52.151Z,46.27
2019-05-20T20:15:20.583Z,50.23
2019-05-20T20:17:48.957Z,45.13
2019-05-20T20:20:17.381Z,45.10
2019-05-20T20:22:46.029Z,41.63
2019-05-20T20:25:14.479Z,43.57
2019-05-20T20:27:42.892Z,43.37
2019-05-20T20:30:11.374Z,40.63
2019-05-20T20:32:39.833Z,47.93
2019-05-20T20:35:08.350Z,42.70
2019-05-20T20:37:36.762Z,45.37
2019-05-20T20:40:05.154Z,47.20
2019-05-20T20:42:33.583Z,38.47
2019-05-20T20:45:01.981Z,43.33
2019-05-20T20:47:41.137Z,49.33
2019-05-20T20:50:00.496Z,46.63
2019-05-20T20:52:32.320Z,48.27
2019-05-20T20:54:58.944Z,48.90
2019-05-20T20:57:27.351Z,49.27
2019-05-20T20:59:55.769Z,38.90
2019-05-20T21:02:24.308Z,41.50
2019-05-20T21:04:52.690Z,48.03
2019-05-20T21:07:21.093Z,51.33
2019-05-20T21:09:51.269Z,56.63
2019-05-20T21:12:19.671Z,44.67
2019-05-20T21:14:48.161Z,44.37
2019-05-20T21:17:16.522Z,41.47
2019-05-20T21:19:44.947Z,45.90
2019-05-20T21:22:13.382Z,42.27
2019-05-20T21:24:41.808Z,44.27
2019-05-20T21:27:10.319Z,44.53
2019-05-20T21:29:38.822Z,38.43
2019-05-20T21:32:07.248Z,38.30
2019-05-20T21:34:35.668Z,36.57
2019-05-20T21:37:04.084Z,38.47
2019-05-20T21:39:32.488Z,44.60
2019-05-20T21:42:00.879Z,46.37
2019-05-20T21:44:29.343Z,52.60
2019-05-20T21:46:57.724Z,37.73
2019-05-20T21:49:26.182Z,45.10
2019-05-20T21:51:54.546Z,38.50
2019-05-20T21:54:23.054Z,40.47
2019-05-20T21:56:51.460Z,37.10
2019-05-20T21:59:19.887Z,41.27
2019-05-20T22:01:48.309Z,40.63
2019-05-20T22:04:16.816Z,34.40
2019-05-20T22:06:45.159Z,33.90
2019-05-20T22:09:13.631Z,37.87
2019-05-20T22:11:41.994Z,38.67
2019-05-20T22:14:10.407Z,39.00
2019-05-20T22:16:38.822Z,35.90
2019-05-20T22:19:07.312Z,34.63
2019-05-20T22:21:49.610Z,39.73
2019-05-20T22:24:18.001Z,36.90
2019-05-20T22:26:46.388Z,38.73
2019-05-20T22:29:14.805Z,34.10
2019-05-20T22:31:43.190Z,33.50
2019-05-20T22:34:11.640Z,33.80
2019-05-20T22:36:40.022Z,34.57
2019-05-20T22:39:08.726Z,36.33
2019-05-20T22:41:37.182Z,34.00
2019-05-20T22:44:05.547Z,30.87
2019-05-20T22:46:34.004Z,26.13
2019-05-20T22:49:02.384Z,25.20
2019-05-20T22:51:30.877Z,23.90
2019-05-20T22:53:59.313Z,25.07
2019-05-20T22:56:27.701Z,21.30
2019-05-20T22:58:56.146Z,20.77
2019-05-20T23:01:24.598Z,18.33
2019-05-20T23:03:56.499Z,18.50
2019-05-20T23:06:23.261Z,21.70
2019-05-20T23:08:51.658Z,21.40
2019-05-20T23:11:20.063Z,21.47
2019-05-20T23:13:48.483Z,16.97
2019-05-20T23:16:16.917Z,17.77
2019-05-20T23:18:45.301Z,15.87
2019-05-20T23:21:13.715Z,14.73
2019-05-20T23:23:42.108Z,13.87
2019-05-20T23:26:10.532Z,17.80
2019-05-20T23:28:39.039Z,14.27
2019-05-20T23:31:07.597Z,15.73
2019-05-20T23:33:35.993Z,16.67
2019-05-20T23:36:04.380Z,14.73
2019-05-20T23:38:32.804Z,17.53
2019-05-20T23:41:02.033Z,18.33
2019-05-20T23:43:30.470Z,15.87
2019-05-20T23:45:58.852Z,20.87
2019-05-20T23:48:27.271Z,18.80
2019-05-20T23:50:55.682Z,19.03
2019-05-20T23:53:24.128Z,19.97
2019-05-20T23:55:52.548Z,22.20
2019-05-20T23:58:20.948Z,24.53
